Time;durP1;ratioP1;P1;durP2;ratioP2;P2;SDS_P1;SDS_P2;PMS_P1;PMS_P2;Temp;Humidity;BMP_temperature;BMP_pressure;BME280_temperature;BME280_humidity;BME280_pressure;Samples;Min_cycle;Max_cycle;Signal;HPM_P1;HPM_P2
2024/01/22 17:01:27;;;;;;;15.77;8.98;;;2.20;1.00;;;;;;5302599;27;61829;-39
2024/01/22 17:03:58;;;;;;;13.98;7.85;;;2.10;1.00;;;;;;5306004;27;20050;-40
2024/01/22 17:06:30;;;;;;;13.15;7.78;;;2.10;1.00;;;;;;5281844;27;20338;-40
2024/01/22 17:09:02;;;;;;;14.85;7.63;;;2.00;1.00;;;;;;5299381;27;20035;-40
2024/01/22 17:11:33;;;;;;;14.50;7.55;;;2.00;1.00;;;;;;5293481;27;20030;-39
2024/01/22 17:14:05;;;;;;;20.60;8.50;;;1.90;1.00;;;;;;5277116;27;20035;-39
2024/01/22 17:16:36;;;;;;;14.25;8.45;;;1.90;1.00;;;;;;5297432;27;20031;-40
2024/01/22 17:19:09;;;;;;;17.25;8.05;;;1.80;1.00;;;;;;5277385;27;20555;-40
2024/01/22 17:21:43;;;;;;;18.73;8.27;;;1.70;1.00;;;;;;5296489;27;20023;-40
2024/01/22 17:24:15;;;;;;;14.63;8.13;;;1.80;1.00;;;;;;5298749;27;20022;-40
2024/01/22 17:26:46;;;;;;;18.20;8.50;;;1.70;37.10;;;;;;5299643;27;20228;-40
2024/01/22 17:29:17;;;;;;;18.15;8.95;;;1.70;99.90;;;;;;5301921;27;20323;-40
2024/01/22 17:31:49;;;;;;;18.63;9.75;;;1.70;99.90;;;;;;5289652;27;20462;-40
2024/01/22 17:34:20;;;;;;;18.90;9.73;;;1.70;99.90;;;;;;5286809;27;20035;-40
2024/01/22 17:36:51;;;;;;;17.90;8.80;;;1.70;99.90;;;;;;5284891;27;20036;-40
2024/01/22 17:39:24;;;;;;;16.98;9.00;;;1.60;99.90;;;;;;5293073;27;20027;-40
2024/01/22 17:41:56;;;;;;;22.38;10.55;;;1.60;99.90;;;;;;5279001;27;20020;-40
2024/01/22 17:44:27;;;;;;;18.60;8.98;;;1.50;99.90;;;;;;5280430;27;20166;-39
2024/01/22 17:46:58;;;;;;;18.30;9.27;;;1.60;99.90;;;;;;5153300;27;20329;-39
2024/01/22 17:49:29;;;;;;;20.15;9.10;;;1.50;99.90;;;;;;5234644;27;20319;-40
2024/01/22 17:52:01;;;;;;;21.85;10.52;;;1.50;99.90;;;;;;5287963;27;20027;-40
2024/01/22 17:54:32;;;;;;;18.77;9.57;;;1.50;99.90;;;;;;5288556;27;20460;-40
2024/01/22 17:57:04;;;;;;;18.55;9.90;;;1.50;99.90;;;;;;5284774;27;20049;-39
2024/01/22 17:59:36;;;;;;;22.23;10.70;;;1.40;99.90;;;;;;5268566;27;20055;-40
2024/01/22 18:02:07;;;;;;;19.48;10.18;;;1.40;99.90;;;;;;5244120;28;20422;-39
2024/01/22 18:04:39;;;;;;;19.88;9.55;;;1.40;99.90;;;;;;5266546;28;20027;-39
2024/01/22 18:07:10;;;;;;;16.70;10.10;;;1.30;1.00;;;;;;5257235;28;20311;-40
2024/01/22 18:09:41;;;;;;;20.77;10.95;;;1.30;1.00;;;;;;5257330;28;20036;-40
2024/01/22 18:12:13;;;;;;;22.08;10.75;;;1.30;1.00;;;;;;5244507;28;20050;-39
2024/01/22 18:14:44;;;;;;;16.83;9.95;;;1.30;1.00;;;;;;5243075;28;20316;-39
2024/01/22 18:17:15;;;;;;;21.15;12.00;;;1.30;1.00;;;;;;5238316;28;20036;-39
2024/01/22 18:19:47;;;;;;;17.55;10.30;;;1.30;1.00;;;;;;5242878;28;20032;-40
2024/01/22 18:22:18;;;;;;;22.45;10.73;;;1.30;1.00;;;;;;5243886;28;20305;-40
2024/01/22 18:24:50;;;;;;;21.30;10.43;;;1.30;1.00;;;;;;5242392;28;20286;-40
2024/01/22 18:27:21;;;;;;;19.20;10.82;;;1.20;1.00;;;;;;5239150;28;20252;-40
2024/01/22 18:29:53;;;;;;;22.08;10.77;;;1.30;1.00;;;;;;5239001;28;20059;-39
2024/01/22 18:32:25;;;;;;;25.20;11.07;;;1.30;1.00;;;;;;5240490;28;20358;-40
2024/01/22 18:34:57;;;;;;;19.15;10.30;;;1.30;1.00;;;;;;5245744;28;20038;-39
2024/01/22 18:37:29;;;;;;;18.08;10.85;;;1.30;1.00;;;;;;5234854;28;20035;-40
2024/01/22 18:40:03;;;;;;;27.65;11.23;;;1.40;1.00;;;;;;5243483;28;20039;-39
2024/01/22 18:42:37;;;;;;;24.95;12.23;;;1.30;1.00;;;;;;5243431;28;20030;-40
2024/01/22 18:45:12;;;;;;;26.38;12.27;;;1.40;1.00;;;;;;5239743;28;20345;-40
2024/01/22 18:47:43;;;;;;;24.02;11.93;;;1.40;1.00;;;;;;5241501;28;20309;-40
2024/01/22 18:50:17;;;;;;;23.25;12.02;;;1.30;1.00;;;;;;5241465;28;20051;-40
2024/01/22 18:52:48;;;;;;;26.30;11.68;;;1.30;1.00;;;;;;5241506;28;20039;-40
2024/01/22 18:55:19;;;;;;;22.23;11.70;;;1.40;1.00;;;;;;5243535;28;20327;-40
2024/01/22 18:57:51;;;;;;;19.88;12.43;;;1.40;1.00;;;;;;5239397;28;20039;-40
2024/01/22 19:00:23;;;;;;;20.55;11.80;;;1.40;1.00;;;;;;5263040;27;20030;-40
2024/01/22 19:02:55;;;;;;;27.20;14.27;;;1.40;1.00;;;;;;5284042;27;20272;-41
2024/01/22 19:05:26;;;;;;;23.85;12.93;;;1.40;1.00;;;;;;5263528;27;20367;-40
2024/01/22 19:07:58;;;;;;;23.90;12.27;;;1.50;13.00;;;;;;5282461;27;20034;-40
2024/01/22 19:10:29;;;;;;;22.15;12.00;;;1.40;1.00;;;;;;5288173;27;20023;-40
2024/01/22 19:13:02;;;;;;;20.25;11.63;;;1.30;1.00;;;;;;5281211;27;20023;-40
2024/01/22 19:15:33;;;;;;;21.83;11.57;;;1.20;1.00;;;;;;5279567;27;20027;-40
2024/01/22 19:18:06;;;;;;;23.08;11.50;;;1.20;1.00;;;;;;5282728;27;20034;-40
2024/01/22 19:20:40;;;;;;;18.58;10.60;;;1.10;1.00;;;;;;5282715;27;20026;-41
2024/01/22 19:23:11;;;;;;;16.85;10.20;;;1.10;64.70;;;;;;5273903;27;20034;-41
2024/01/22 19:25:43;;;;;;;21.00;11.57;;;1.10;99.90;;;;;;5278012;27;20042;-41
2024/01/22 19:28:15;;;;;;;22.55;9.93;;;1.00;68.20;;;;;;5278516;27;20039;-39
2024/01/22 19:30:46;;;;;;;22.55;11.65;;;1.00;99.90;;;;;;5280005;27;20031;-41
2024/01/22 19:33:18;;;;;;;24.65;10.70;;;1.00;99.90;;;;;;5281228;27;20053;-41
2024/01/22 19:35:52;;;;;;;18.90;10.63;;;1.00;99.90;;;;;;5283894;27;20033;-41
2024/01/22 19:38:23;;;;;;;21.38;11.52;;;1.10;99.90;;;;;;5281996;27;20042;-41
2024/01/22 19:40:58;;;;;;;25.52;10.75;;;1.00;99.90;;;;;;5280119;27;20187;-41
2024/01/22 19:43:29;;;;;;;18.48;10.75;;;1.00;99.90;;;;;;5280141;27;20023;-41
2024/01/22 19:46:02;;;;;;;21.85;10.55;;;1.00;99.90;;;;;;5275541;27;20031;-41
2024/01/22 19:48:39;;;;;;;21.43;10.20;;;1.00;99.90;;;;;;5282235;27;20019;-41
2024/01/22 19:51:15;;;;;;;18.98;10.93;;;1.10;99.90;;;;;;5283625;27;20594;-41
2024/01/22 19:53:46;;;;;;;20.48;11.35;;;1.10;96.00;;;;;;5286147;27;20350;-41
2024/01/22 19:56:21;;;;;;;24.25;11.55;;;1.10;60.70;;;;;;5286690;27;20199;-41
2024/01/22 19:58:52;;;;;;;21.20;10.57;;;1.10;28.30;;;;;;5280638;27;20031;-41
2024/01/22 20:01:24;;;;;;;18.15;11.18;;;1.10;1.00;;;;;;5283272;27;20019;-40
2024/01/22 20:03:58;;;;;;;18.90;10.63;;;1.10;1.00;;;;;;5284583;27;20977;-41
2024/01/22 20:06:30;;;;;;;25.13;11.80;;;1.10;1.00;;;;;;5288599;27;20244;-41
2024/01/22 20:09:06;;;;;;;20.10;11.63;;;1.10;1.00;;;;;;5284642;27;20031;-41
2024/01/22 20:11:37;;;;;;;21.85;11.25;;;1.20;16.50;;;;;;5281473;27;20036;-40
2024/01/22 20:14:08;;;;;;;25.15;12.15;;;1.20;99.90;;;;;;5286527;27;20065;-41
2024/01/22 20:16:45;;;;;;;21.80;11.07;;;1.30;97.30;;;;;;5283720;27;20030;-41
2024/01/22 20:19:16;;;;;;;21.95;11.55;;;1.30;99.90;;;;;;5268428;27;20024;-41
2024/01/22 20:21:47;;;;;;;21.83;12.13;;;1.30;98.40;;;;;;5290397;27;20323;-41
2024/01/22 20:24:18;;;;;;;24.05;11.45;;;1.30;57.20;;;;;;5287741;27;20363;-41
2024/01/22 20:26:53;;;;;;;20.92;11.85;;;1.40;99.90;;;;;;5269225;28;20035;-41
2024/01/22 20:29:24;;;;;;;;;;;1.50;99.90;;;;;;5291551;27;20239;-41
2024/01/22 20:31:58;;;;;;;21.67;11.70;;;1.60;99.90;;;;;;5278558;27;19911;-42
2024/01/22 20:34:29;;;;;;;22.55;12.65;;;1.60;99.90;;;;;;5280578;27;20038;-41
2024/01/22 20:37:01;;;;;;;25.23;11.23;;;1.70;99.90;;;;;;5280168;27;20031;-39
2024/01/22 20:39:37;;;;;;;22.50;11.77;;;1.70;99.90;;;;;;5288920;27;20256;-42
2024/01/22 20:42:08;;;;;;;19.95;11.52;;;1.70;99.90;;;;;;5287629;27;20315;-41
2024/01/22 20:44:42;;;;;;;22.65;11.80;;;1.70;1.00;;;;;;5279702;27;20313;-40
2024/01/22 20:47:18;;;;;;;21.83;11.98;;;1.60;1.00;;;;;;5274667;27;20031;-41
2024/01/22 20:49:50;;;;;;;23.70;12.00;;;1.60;1.00;;;;;;5277349;27;20039;-41
2024/01/22 20:52:21;;;;;;;24.63;12.27;;;1.70;1.00;;;;;;5285011;27;20349;-41
2024/01/22 20:54:54;;;;;;;23.45;12.70;;;1.70;1.00;;;;;;5284216;27;20642;-41
2024/01/22 20:57:26;;;;;;;30.08;14.75;;;1.90;1.00;;;;;;5299741;27;20209;-41
2024/01/22 20:59:57;;;;;;;28.80;14.60;;;2.10;97.90;;;;;;5299807;28;20039;-41
2024/01/22 21:02:30;;;;;;;23.45;12.85;;;2.20;60.50;;;;;;5295766;28;20031;-41
2024/01/22 21:05:04;;;;;;;24.73;13.00;;;2.00;1.00;;;;;;5288381;27;20049;-41
2024/01/22 21:07:35;;;;;;;21.83;12.90;;;2.10;1.00;;;;;;5295383;28;20037;-41
2024/01/22 21:10:10;;;;;;;24.10;12.48;;;2.00;1.00;;;;;;5289715;28;20030;-41
2024/01/22 21:12:45;;;;;;;;;;;1.90;1.00;;;;;;5280300;28;20039;-41
2024/01/22 21:15:16;;;;;;;23.90;12.13;;;2.00;1.00;;;;;;5281363;28;20190;-41
2024/01/22 21:17:49;;;;;;;21.35;11.70;;;2.20;1.00;;;;;;5295830;28;20031;-41
2024/01/22 21:20:21;;;;;;;27.45;12.93;;;2.20;1.00;;;;;;5283950;28;20041;-41
2024/01/22 21:22:53;;;;;;;26.27;12.35;;;2.10;1.00;;;;;;5267287;28;20278;-41
2024/01/22 21:25:24;;;;;;;25.80;12.27;;;2.10;1.00;;;;;;5287298;28;20280;-41
2024/01/22 21:27:58;;;;;;;24.52;13.43;;;2.20;1.00;;;;;;5284165;28;20245;-41
2024/01/22 21:30:32;;;;;;;22.73;12.88;;;2.00;1.00;;;;;;5290483;28;20311;-40
2024/01/22 21:33:06;;;;;;;28.08;14.45;;;2.00;1.00;;;;;;5274827;28;20039;-41
2024/01/22 21:35:43;;;;;;;25.60;13.95;;;2.00;1.00;;;;;;5290297;28;20023;-41
2024/01/22 21:38:14;;;;;;;27.45;13.38;;;1.90;1.00;;;;;;5283625;28;20049;-41
2024/01/22 21:40:47;;;;;;;26.95;13.10;;;1.90;10.20;;;;;;5286400;28;20034;-41
2024/01/22 21:43:19;;;;;;;32.83;14.45;;;1.70;1.00;;;;;;5268639;28;20273;-41
2024/01/22 21:45:51;;;;;;;25.58;13.70;;;1.60;1.00;;;;;;5286094;27;20020;-41
2024/01/22 21:48:27;;;;;;;24.45;14.15;;;1.50;2.10;;;;;;5294352;27;20204;-41
2024/01/22 21:51:02;;;;;;;26.83;13.98;;;1.40;1.80;;;;;;5275511;27;20030;-41
2024/01/22 21:53:41;;;;;;;29.50;13.90;;;1.30;4.50;;;;;;5285553;27;20243;-41
2024/01/22 21:56:14;;;;;;;29.52;13.25;;;1.40;72.80;;;;;;5285727;27;20031;-40
2024/01/22 21:58:45;;;;;;;20.90;12.00;;;1.40;92.50;;;;;;5293702;27;20044;-40
2024/01/22 22:01:19;;;;;;;25.50;13.65;;;1.40;99.90;;;;;;5288330;27;20354;-40
2024/01/22 22:03:50;;;;;;;28.17;13.77;;;1.50;1.00;;;;;;5291461;27;20241;-40
2024/01/22 22:06:21;;;;;;;25.02;13.48;;;1.60;99.90;;;;;;5294735;27;20046;-51
2024/01/22 22:08:52;;;;;;;31.27;14.38;;;1.60;99.90;;;;;;5275815;27;20027;-60
2024/01/22 22:11:25;;;;;;;26.55;13.70;;;1.50;99.90;;;;;;5269449;27;20038;-56
2024/01/22 22:13:56;;;;;;;26.40;14.25;;;1.50;1.00;;;;;;5270245;27;20053;-43
2024/01/22 22:16:31;;;;;;;30.52;15.68;;;1.20;1.00;;;;;;5289828;27;20366;-47
2024/01/22 22:19:02;;;;;;;33.90;16.05;;;1.10;64.80;;;;;;5278760;27;20023;-42
2024/01/22 22:21:45;;;;;;;34.20;15.80;;;1.00;99.90;;;;;;5303013;27;20027;-43
2024/01/22 22:24:18;;;;;;;27.88;15.98;;;1.00;99.90;;;;;;5304047;27;20277;-43
2024/01/22 22:26:49;;;;;;;34.20;16.65;;;1.00;1.00;;;;;;5294229;27;20030;-42
2024/01/22 22:29:20;;;;;;;32.90;15.77;;;1.00;1.00;;;;;;5282881;27;20012;-43
2024/01/22 22:31:54;;;;;;;32.78;17.10;;;1.00;1.00;;;;;;5283028;27;20027;-43
2024/01/22 22:34:30;;;;;;;28.88;16.63;;;1.00;1.00;;;;;;5286467;27;20196;-43
2024/01/22 22:37:05;;;;;;;34.10;16.55;;;1.20;1.00;;;;;;5281165;27;20031;-43
2024/01/22 22:39:41;;;;;;;30.77;16.67;;;1.30;1.00;;;;;;5284652;27;20065;-41
2024/01/22 22:42:14;;;;;;;29.80;16.10;;;1.10;1.00;;;;;;5284748;27;20035;-43
2024/01/22 22:44:46;;;;;;;31.48;17.05;;;1.20;1.00;;;;;;5275071;27;21108;-42
2024/01/22 22:47:17;;;;;;;35.42;16.88;;;1.40;1.00;;;;;;5278082;27;20037;-42
2024/01/22 22:49:49;;;;;;;30.02;17.15;;;1.60;1.00;;;;;;5280066;27;20327;-42
2024/01/22 22:52:20;;;;;;;32.50;17.00;;;1.40;1.00;;;;;;5302388;27;20057;-43
2024/01/22 22:54:51;;;;;;;36.40;16.63;;;1.50;1.00;;;;;;5287849;27;20042;-42
2024/01/22 22:57:28;;;;;;;33.53;16.58;;;1.40;1.00;;;;;;5295806;27;20044;-42
2024/01/22 23:00:04;;;;;;;39.42;19.05;;;1.20;1.00;;;;;;5295453;27;20162;-42
2024/01/22 23:02:35;;;;;;;37.28;19.15;;;1.00;1.00;;;;;;5293246;27;20294;-42
2024/01/22 23:05:07;;;;;;;38.40;19.48;;;1.10;1.00;;;;;;5296436;27;20028;-42
2024/01/22 23:07:39;;;;;;;38.03;18.67;;;1.10;1.00;;;;;;5292982;27;20244;-42
2024/01/22 23:10:13;;;;;;;41.67;18.08;;;1.00;1.00;;;;;;5293012;27;20027;-42
2024/01/22 23:12:44;;;;;;;36.28;18.40;;;1.00;1.00;;;;;;5284932;27;20350;-43
2024/01/22 23:15:17;;;;;;;35.00;18.15;;;0.90;1.00;;;;;;5266676;27;20019;-43
2024/01/22 23:17:50;;;;;;;32.63;16.55;;;0.80;1.00;;;;;;5289891;27;20037;-44
2024/01/22 23:20:23;;;;;;;34.28;17.05;;;0.70;1.00;;;;;;5282781;27;20034;-43
2024/01/22 23:22:58;;;;;;;37.28;17.23;;;0.50;1.00;;;;;;5276182;27;20031;-42
2024/01/22 23:25:32;;;;;;;33.58;18.15;;;0.40;1.00;;;;;;5277554;27;20015;-42
2024/01/22 23:28:06;;;;;;;30.60;16.75;;;0.30;1.00;;;;;;5278095;27;20031;-42
2024/01/22 23:30:37;;;;;;;27.02;13.90;;;0.30;1.00;;;;;;5284101;27;20031;-42
2024/01/22 23:33:11;;;;;;;30.00;15.77;;;0.20;1.00;;;;;;5299796;27;20034;-42
2024/01/22 23:35:42;;;;;;;31.20;17.05;;;0.20;1.00;;;;;;5284262;27;20031;-42
2024/01/22 23:38:13;;;;;;;31.15;16.52;;;0.10;1.00;;;;;;5284179;27;20159;-42
2024/01/22 23:40:47;;;;;;;31.65;17.17;;;0.20;1.00;;;;;;5284122;27;20204;-42
2024/01/22 23:43:24;;;;;;;38.15;17.15;;;0.20;1.00;;;;;;5284715;27;20030;-42
2024/01/22 23:46:00;;;;;;;30.88;16.20;;;0.20;1.00;;;;;;5295926;27;20231;-42
2024/01/22 23:48:31;;;;;;;35.28;17.85;;;0.20;1.00;;;;;;5258090;28;20031;-42
2024/01/22 23:51:03;;;;;;;34.88;17.88;;;0.20;1.00;;;;;;5298833;27;20046;-42
2024/01/22 23:53:36;;;;;;;33.33;17.52;;;0.20;1.00;;;;;;5302423;27;20293;-42
2024/01/22 23:56:10;;;;;;;32.05;17.63;;;0.20;1.00;;;;;;5298398;27;20029;-42
2024/01/22 23:58:44;;;;;;;36.72;19.70;;;0.30;1.00;;;;;;5297314;27;20027;-42
